Station: Coonawarra  

  Atmospheric Gas Attenuation - ITU Rec 676-11   ----------------- dB/100km -----------------
Date Time Temp RH % AH g/m3 Dew Point Wind Direction Speed kph Gust kph Barometer mB Rainfall Since 9am 24GHz 47GHz 76GHz 122GHz 134GHz 241GHz
10/05 21:00 9.7 93 8.58 8.6 9 11 1031.8 0 19.7 27.8 42.7 111.9 105.1 361.1
10/05 20:50 9.9 93 8.69 8.8 9 11 1031.9 0 20.0 28.0 43.1 112.9 106.4 365.7
10/05 20:40 10 94 8.83 9.1 9 11 1031.8 0 20.3 28.2 43.6 114.3 108.2 372.1
10/05 20:30 10 95 8.93 9.2 9 11 1031.6 0 20.5 28.3 44.0 115.5 109.6 377.0
10/05 20:20 10.1 95 8.99 9.3 9 11 1031.7 0 20.6 28.4 44.3 116.0 110.3 379.6
10/05 20:10 10.1 95 8.99 9.3 7 9 1031.7 0 20.6 28.4 44.3 116.0 110.3 379.6
10/05 20:00 9.9 94 8.78 9 9 11 1031.6 0 20.1 28.1 43.5 113.9 107.6 370.0
10/05 19:50 10 93 8.74 8.9 7 9 1031.7 0 20.1 28.0 43.2 113.3 106.9 367.6
10/05 19:40 10.4 92 8.87 9.2 7 7 1031.7 0 20.3 28.1 43.6 114.2 108.2 372.1
10/05 19:30 10.7 92 9.04 9.5 11 13 1031.5 0 20.7 28.3 44.1 115.7 110.2 379.1
10/05 19:20 11.1 93 9.37 10 9 11 1031.6 0 21.4 28.7 45.3 118.9 114.3 393.5
10/05 19:10 10.9 92 9.15 9.7 11 13 1031.5 0 20.9 28.4 44.5 116.6 111.4 383.5
10/05 19:00 11 91 9.11 9.6 11 15 1031.3 0 20.8 28.3 44.2 116.0 110.7 381.0
10/05 18:50 10.9 91 9.05 9.5 11 11 1031.3 0 20.7 28.2 44.0 115.5 110.0 378.5
10/05 18:40 11.2 89 9.02 9.5 9 9 1031.3 0 20.6 28.1 43.7 114.7 109.2 375.6
10/05 18:30 11.3 89 9.08 9.6 9 9 1031.1 0 20.7 28.1 43.9 115.2 109.8 378.0
10/05 18:20 11.5 89 9.19 9.8 7 9 1031.1 0 20.9 28.3 44.3 116.2 111.1 382.4
10/05 18:10 11.7 87 9.1 9.6 7 7 1030.9 0 20.7 28.0 43.8 114.8 109.5 377.0
10/05 18:00 12.1 84 9.01 9.5 7 9 1030.8 0 20.5 27.8 43.2 113.2 107.7 370.6
10/05 17:50 12.8 84 9.41 10.2 7 9 1030.8 0 21.3 28.2 44.5 116.7 112.3 386.7
10/05 17:40 13 83 9.41 10.2 7 9 1030.7 0 21.3 28.2 44.4 116.4 112.0 385.7
10/05 17:30 13.3 82 9.47 10.3 9 11 1030.5 0 21.5 28.2 44.4 116.6 112.4 387.0
10/05 17:20 13.6 81 9.53 10.4 11 13 1030.4 0 21.6 28.2 44.5 116.8 112.7 388.4
10/05 17:10 14 80 9.65 10.6 11 13 1030.3 0 21.8 28.2 44.8 117.5 113.8 392.2
10/05 17:00 14.3 79 9.71 10.7 15 24 1030.1 0 21.9 28.2 44.9 117.7 114.2 393.5
10/05 16:50 14.6 78 9.76 10.8 11 15 1030.2 0 22.0 28.2 44.9 117.9 114.4 394.5
10/05 16:40 14.9 77 9.81 10.9 15 17 1030.2 0 22.1 28.2 44.9 118.0 114.7 395.3
10/05 16:30 15.1 76 9.8 10.9 15 22 1030.1 0 22.1 28.1 44.8 117.5 114.2 393.8
10/05 16:20 15.2 76 9.86 11 13 15 1030.2 0 22.2 28.2 45.0 118.1 114.9 396.2
10/05 16:10 15.3 75 9.79 10.9 17 20 1030.2 0 22.0 28.0 44.6 117.1 113.8 392.4
10/05 16:00 15.5 75 9.91 11.1 13 20 1030.1 0 22.3 28.2 45.0 118.2 115.1 397.1
10/05 15:50 15.6 74 9.84 11 13 17 1030.3 0 22.1 28.0 44.7 117.3 114.0 393.3
10/05 15:40 15.6 74 9.84 11 13 17 1030.3 0 22.1 28.0 44.7 117.3 114.0 393.3
10/05 15:30 15.7 74 9.9 11.1 13 19 1030.1 0 22.2 28.1 44.9 117.7 114.7 395.6
10/05 15:20 15.9 75 10.16 11.5 11 15 1030.2 0 22.8 28.5 45.8 120.3 118.0 407.0
10/05 15:10 15.9 72 9.75 10.9 17 20 1030.2 0 21.9 27.8 44.1 115.8 112.4 387.5
10/05 15:00 15.9 73 9.89 11.1 15 20 1030 0 22.2 28.0 44.7 117.3 114.3 394.1
10/05 14:50 16.1 74 10.14 11.5 17 20 1030.1 0 22.7 28.4 45.6 119.8 117.4 405.0
10/05 14:40 16 73 9.95 11.2 17 19 1030.1 0 22.3 28.1 44.9 117.9 114.9 396.4
10/05 14:30 16 72 9.81 11 15 20 1029.9 0 22.0 27.8 44.3 116.3 113.0 389.7
10/05 14:20 16.1 71 9.73 10.8 15 17 1029.9 0 21.9 27.7 43.9 115.3 111.8 385.5
10/05 14:10 16.6 74 10.45 11.9 11 13 1029.9 0 23.4 28.7 46.6 122.5 120.8 417.1
10/05 14:00 16.1 73 10.01 11.3 13 19 1029.9 0 22.5 28.1 45.1 118.3 115.6 398.7
10/05 13:50 15.5 76 10.05 11.3 19 20 1030 0 22.6 28.4 45.6 119.7 117.0 403.7
10/05 13:40 15.9 76 10.29 11.7 13 19 1030.1 0 23.1 28.7 46.4 121.8 119.7 413.2
10/05 13:30 15.6 77 10.24 11.6 13 20 1030 0 23.0 28.7 46.3 121.7 119.5 412.4
10/05 13:20 15.2 78 10.12 11.4 6 9 1030.2 0 22.7 28.6 46.1 121.0 118.5 408.7
10/05 13:10 15.3 77 10.06 11.3 15 17 1030.2 0 22.6 28.5 45.8 120.1 117.5 405.3
10/05 13:00 15.3 78 10.19 11.5 13 19 1030.1 0 22.9 28.7 46.3 121.6 119.3 411.6
10/05 12:50 14.7 78 9.82 10.9 13 15 1030.2 0 22.1 28.3 45.1 118.4 115.1 396.8
10/05 12:40 15.2 77 9.99 11.2 11 13 1030.3 0 22.5 28.4 45.5 119.5 116.7 402.5
10/05 12:30 15 78 10 11.2 11 19 1030.4 0 22.5 28.5 45.7 120.0 117.1 404.0
10/05 12:20 15.1 78 10.06 11.3 11 13 1030.7 0 22.6 28.6 45.9 120.5 117.8 406.5
10/05 12:10 15.2 78 10.12 11.4 11 13 1030.8 0 22.7 28.7 46.1 121.0 118.5 408.9
10/05 12:00 15.2 81 10.51 12 13 17 1030.8 0 23.6 29.3 47.8 125.5 124.0 427.9
10/05 11:50 14.4 81 10.01 11.2 9 11 1031.1 0 22.5 28.7 46.1 121.1 118.3 407.9
10/05 11:40 14.2 81 9.89 11 15 19 1031.3 0 22.3 28.6 45.7 120.1 116.9 403.1
10/05 11:30 14.1 82 9.95 11.1 11 22 1031.3 0 22.4 28.7 46.1 120.9 117.9 406.6
10/05 11:20 13.8 82 9.77 10.8 11 13 1031.5 0 22.1 28.5 45.5 119.3 115.9 399.4
10/05 11:10 13.8 83 9.89 11 9 11 1031.6 0 22.3 28.8 46.0 120.7 117.6 405.3
10/05 11:00 13.7 86 10.18 11.4 15 19 1031.6 0 22.9 29.3 47.3 124.2 121.8 420.1
10/05 10:50 13.6 83 9.77 10.8 11 15 1031.8 0 22.1 28.6 45.6 119.7 116.2 400.5
10/05 10:40 13.5 84 9.83 10.9 13 15 1031.8 0 22.2 28.8 45.9 120.5 117.2 404.0
10/05 10:30 13.3 86 9.94 11 13 19 1031.7 0 22.5 29.0 46.5 122.1 119.0 410.4
10/05 10:20 12.9 87 9.81 10.8 11 13 1031.7 0 22.2 28.9 46.2 121.2 117.8 406.1
10/05 10:10 12.5 86 9.46 10.2 13 17 1031.6 0 21.5 28.4 44.9 117.8 113.5 390.9
10/05 10:00 12.8 87 9.75 10.7 11 17 1031.5 0 22.1 28.8 46.0 120.6 117.1 403.6
10/05 09:50 12.4 88 9.62 10.5 13 15 1031.6 0 21.8 28.7 45.7 119.8 115.9 399.3
10/05 09:40 12.1 89 9.55 10.3 9 11 1031.7 0 21.7 28.7 45.5 119.5 115.4 397.4
10/05 09:30 12.1 89 9.55 10.3 13 17 1031.5 0 21.7 28.7 45.5 119.4 115.3 397.3
10/05 09:20 12.2 90 9.71 10.6 11 13 1031.7 0 22.0 29.0 46.2 121.1 117.5 404.8
10/05 09:10 12.1 91 9.76 10.7 13 15 1031.6 0 22.1 29.1 46.4 121.9 118.3 407.8
10/05 09:00 11.9 91 9.64 10.5 11 17 1031.6 0 21.9 28.9 46.0 120.8 116.9 402.9
10/05 08:50 11.9 91 9.64 10.5 9 11 1031.6 0.2 21.9 28.9 46.0 120.8 116.9 402.9
10/05 08:40 11.8 92 9.68 10.5 15 17 1031.6 0.2 22.0 29.0 46.3 121.4 117.7 405.4
10/05 08:30 12 92 9.81 10.7 11 15 1031.4 0.2 22.2 29.2 46.7 122.6 119.2 410.8
10/05 08:20 11.9 93 9.85 10.8 9 11 1031.4 0.2 22.3 29.3 46.9 123.2 119.9 413.3
10/05 08:10 11.7 92 9.62 10.4 13 15 1031.3 0.2 21.9 29.0 46.0 120.8 116.9 402.8
10/05 08:00 11.6 93 9.67 10.5 11 17 1031.1 0.2 22.0 29.1 46.3 121.5 117.8 405.8
10/05 07:50 11.5 93 9.61 10.4 13 13 1031.1 0.2 21.8 29.0 46.1 121.0 117.1 403.3
10/05 07:40 11.5 92 9.5 10.2 9 11 1031 0.2 21.6 28.8 45.6 119.7 115.5 397.8
10/05 07:30 11.4 92 9.44 10.1 11 17 1030.8 0.2 21.5 28.7 45.4 119.2 114.8 395.2
10/05 07:20 11.3 92 9.39 10 17 19 1030.8 0.2 21.4 28.7 45.3 118.7 114.2 393.3
10/05 07:10 11.3 92 9.39 10 11 15 1030.7 0.2 21.4 28.7 45.3 118.7 114.2 393.2
10/05 07:00 11.3 93 9.49 10.2 9 15 1030.5 0.2 21.6 28.8 45.7 119.9 115.6 398.1
10/05 06:50 11.3 93 9.49 10.2 13 15 1030.5 0.2 21.6 28.8 45.7 119.9 115.6 398.1
10/05 06:40 11.3 92 9.39 10 9 11 1030.5 0.2 21.4 28.7 45.2 118.7 114.2 393.2
10/05 06:30 11.3 92 9.39 10 9 15 1030.4 0.2 21.4 28.7 45.2 118.7 114.2 393.1
10/05 06:20 11.4 92 9.44 10.1 9 11 1030.3 0.2 21.5 28.7 45.4 119.1 114.7 395.1
10/05 06:10 11.3 91 9.28 9.9 13 17 1030.3 0.2 21.2 28.5 44.8 117.4 112.6 387.6
10/05 06:00 11.3 91 9.28 9.9 17 22 1030.1 0.2 21.2 28.5 44.7 117.4 112.6 387.6
10/05 05:50 11.3 91 9.28 9.9 15 19 1030.1 0.2 21.2 28.5 44.7 117.4 112.6 387.6
10/05 05:40 11.2 91 9.23 9.8 15 19 1030.1 0.2 21.0 28.4 44.6 117.0 112.0 385.6
10/05 05:30 11.3 92 9.39 10 11 17 1029.9 0.2 21.4 28.6 45.2 118.6 114.1 393.0
10/05 05:20 11.3 92 9.39 10 9 11 1029.9 0.2 21.4 28.6 45.2 118.6 114.1 393.0
10/05 05:10 11.3 92 9.39 10 11 13 1029.8 0.2 21.4 28.6 45.2 118.6 114.1 392.9
10/05 05:00 11.2 92 9.33 10 13 19 1029.6 0.2 21.3 28.6 45.0 118.1 113.4 390.4
10/05 04:50 11.3 92 9.39 10 15 19 1029.7 0.2 21.4 28.6 45.2 118.6 114.1 392.9
10/05 04:40 11.3 92 9.39 10 13 15 1029.6 0.2 21.4 28.6 45.2 118.6 114.1 392.9
10/05 04:30 11.3 92 9.39 10 13 22 1029.4 0.2 21.4 28.6 45.2 118.6 114.1 392.8

Last Refresh: 10-May-2026 21:06:07

Bureau of Meteorology